Terminal Aerodrome Forecast
Issued by NWS

Home | Current Version | Previous Version | Text Only | Print | Product List | Glossary On
Versions: 1 2 3 4 5 6 7 8 9 10 11 12 13 14 15 16 17 18 19
000
FTUS45 KSLC 211120
TAFENV
TAF
KENV 211120Z 2112/2212 33012G21KT P6SM VCSH BKN050 OVC080
     FM211500 33011G18KT P6SM -SHRA BKN035 OVC050
     FM211700 32012KT 6SM SHRA BKN020 OVC050
     FM212100 28010KT P6SM -SHRA BKN035 OVC050
     FM220100 26008KT P6SM -SHRA SCT030 BKN050 OVC100=

USA.gov is the U.S. government's official web portal to all federal, state and local government web resources and services.